createdAt,value
2022-08-11T00:01:45.367Z,19.98
2022-08-11T00:04:11.901Z,19.94
2022-08-11T00:06:38.771Z,19.86
2022-08-11T00:09:08.143Z,19.82
2022-08-11T00:11:36.180Z,19.79
2022-08-11T00:14:04.791Z,19.75
2022-08-11T00:16:31.349Z,19.72
2022-08-11T00:18:57.910Z,19.70
2022-08-11T00:22:01.825Z,19.65
2022-08-11T00:24:11.686Z,19.62
2022-08-11T00:26:38.347Z,19.57
2022-08-11T00:29:10.036Z,19.54
2022-08-11T00:31:36.611Z,19.50
2022-08-11T00:34:03.318Z,19.49
2022-08-11T00:36:38.645Z,19.45
2022-08-11T00:39:06.607Z,19.40
2022-08-11T00:41:36.439Z,19.38
2022-08-11T00:44:23.014Z,19.35
2022-08-11T00:46:56.127Z,19.30
2022-08-11T00:49:30.403Z,19.24
2022-08-11T00:52:06.937Z,19.20
2022-08-11T00:54:50.442Z,19.19
2022-08-11T00:57:36.065Z,19.17
2022-08-11T01:00:12.645Z,19.14
2022-08-11T01:02:45.063Z,19.11
2022-08-11T01:05:38.739Z,19.09
2022-08-11T01:08:36.368Z,19.07
2022-08-11T01:11:25.888Z,19.05
2022-08-11T01:14:34.015Z,19.04
2022-08-11T01:17:28.999Z,18.98
2022-08-11T01:20:46.667Z,18.96
2022-08-11T01:23:19.415Z,18.93
2022-08-11T01:26:09.698Z,18.91
2022-08-11T01:29:07.428Z,18.87
2022-08-11T01:32:04.505Z,18.82
2022-08-11T01:35:20.030Z,18.75
2022-08-11T01:38:38.308Z,18.68
2022-08-11T01:41:22.328Z,18.63
2022-08-11T01:44:04.227Z,18.59
2022-08-11T01:46:43.493Z,18.56
2022-08-11T01:50:05.974Z,18.56
2022-08-11T01:52:08.434Z,18.55
2022-08-11T01:54:40.166Z,18.52
2022-08-11T01:57:12.897Z,18.51
2022-08-11T01:59:41.040Z,18.48
2022-08-11T02:02:26.996Z,18.45
2022-08-11T02:04:56.479Z,18.41
2022-08-11T02:07:28.492Z,18.37
2022-08-11T02:10:00.757Z,18.32
2022-08-11T02:12:52.212Z,18.29
2022-08-11T02:15:26.765Z,18.25
2022-08-11T02:18:10.535Z,18.25
2022-08-11T02:20:41.842Z,18.21
2022-08-11T02:23:59.531Z,18.20
2022-08-11T02:26:06.202Z,18.17
2022-08-11T02:28:46.367Z,18.12
2022-08-11T02:32:05.139Z,18.07
2022-08-11T02:34:08.548Z,18.04
2022-08-11T02:36:38.445Z,18.05
2022-08-11T02:39:08.566Z,18.02
2022-08-11T02:41:38.299Z,18.00
2022-08-11T02:44:20.650Z,17.99
2022-08-11T02:46:51.586Z,17.95
2022-08-11T02:49:25.427Z,17.92
2022-08-11T02:52:07.014Z,17.87
2022-08-11T02:54:38.997Z,17.83
2022-08-11T02:57:11.331Z,17.81
2022-08-11T02:59:45.021Z,17.78
2022-08-11T03:02:15.583Z,17.72
2022-08-11T03:04:48.943Z,17.67
2022-08-11T03:07:28.508Z,17.62
2022-08-11T03:10:00.117Z,17.58
2022-08-11T03:12:34.356Z,17.55
2022-08-11T03:15:03.096Z,17.53
2022-08-11T03:17:32.157Z,17.49
2022-08-11T03:20:11.384Z,17.48
2022-08-11T03:22:47.262Z,17.46
2022-08-11T03:25:19.691Z,17.44
2022-08-11T03:27:50.625Z,17.43
2022-08-11T03:30:19.337Z,17.41
2022-08-11T03:32:56.998Z,17.39
2022-08-11T03:35:23.732Z,17.36
2022-08-11T03:37:52.194Z,17.32
2022-08-11T03:40:39.838Z,17.30
2022-08-11T03:43:11.791Z,17.28
2022-08-11T03:45:47.867Z,17.25
2022-08-11T03:48:18.203Z,17.25
2022-08-11T03:50:55.421Z,17.24
2022-08-11T03:53:44.549Z,17.22
2022-08-11T03:56:29.687Z,17.16
2022-08-11T03:59:18.718Z,17.14
2022-08-11T04:02:04.495Z,17.14
2022-08-11T04:05:24.870Z,17.14
2022-08-11T04:08:34.105Z,17.13
2022-08-11T04:11:21.743Z,17.13
2022-08-11T04:14:34.867Z,17.16
2022-08-11T04:17:22.733Z,17.19
2022-08-11T04:20:23.094Z,17.18
2022-08-11T04:23:11.523Z,17.19
2022-08-11T04:26:16.212Z,17.19
2022-08-11T04:28:55.363Z,17.20
2022-08-11T04:31:44.154Z,17.23
2022-08-11T04:34:36.659Z,17.61
2022-08-11T04:37:19.694Z,18.59
2022-08-11T04:40:31.298Z,19.74
2022-08-11T04:44:04.596Z,20.91
2022-08-11T04:46:44.753Z,21.91
2022-08-11T04:49:35.028Z,22.51
2022-08-11T04:52:22.915Z,22.72
2022-08-11T04:54:54.437Z,22.80
2022-08-11T04:57:27.060Z,22.65
2022-08-11T05:00:01.754Z,22.42
2022-08-11T05:03:04.627Z,22.19
2022-08-11T05:05:54.729Z,21.91
2022-08-11T05:08:53.176Z,21.68
2022-08-11T05:12:07.538Z,21.44
2022-08-11T05:14:34.954Z,21.29
2022-08-11T05:17:06.901Z,21.18
2022-08-11T05:19:33.504Z,21.07
2022-08-11T05:22:01.460Z,21.00
2022-08-11T05:24:31.030Z,20.93
2022-08-11T05:26:57.599Z,20.90
2022-08-11T05:29:29.061Z,20.93
2022-08-11T05:31:56.880Z,21.00
2022-08-11T05:34:25.302Z,21.02
2022-08-11T05:36:56.397Z,21.06
2022-08-11T05:39:36.330Z,21.08
2022-08-11T05:42:04.337Z,21.09
2022-08-11T05:44:30.900Z,21.16
2022-08-11T05:46:57.471Z,21.18
2022-08-11T05:49:24.199Z,21.17
2022-08-11T05:51:55.468Z,21.14
2022-08-11T05:54:28.962Z,21.12
2022-08-11T05:56:59.134Z,21.08
2022-08-11T05:59:25.873Z,21.08
2022-08-11T06:01:52.569Z,21.10
2022-08-11T06:04:20.405Z,21.14
2022-08-11T06:06:55.778Z,21.21
2022-08-11T06:09:29.140Z,21.29
2022-08-11T06:12:00.004Z,21.33
2022-08-11T06:14:26.916Z,21.43
2022-08-11T06:16:56.267Z,21.51
2022-08-11T06:19:23.186Z,21.60
2022-08-11T06:21:49.832Z,21.73
2022-08-11T06:24:16.410Z,21.87
2022-08-11T06:27:09.223Z,22.03
2022-08-11T06:29:37.992Z,22.20
2022-08-11T06:32:14.839Z,22.38
2022-08-11T06:34:54.264Z,22.51
2022-08-11T06:37:24.981Z,22.63
2022-08-11T06:39:57.425Z,22.72
2022-08-11T06:42:34.145Z,22.80
2022-08-11T06:45:06.714Z,22.92
2022-08-11T06:47:33.290Z,23.04
2022-08-11T06:49:59.894Z,23.16
2022-08-11T06:52:35.246Z,23.30
2022-08-11T06:55:06.368Z,23.42
2022-08-11T06:57:33.700Z,23.56
2022-08-11T07:00:01.831Z,23.71
2022-08-11T07:02:31.286Z,23.80
2022-08-11T07:04:59.944Z,23.90
2022-08-11T07:07:42.154Z,24.02
2022-08-11T07:10:26.514Z,24.13
2022-08-11T07:12:53.045Z,24.22
2022-08-11T07:15:21.063Z,24.26
2022-08-11T07:17:50.245Z,24.31
2022-08-11T07:20:17.052Z,24.38
2022-08-11T07:22:46.026Z,24.48
2022-08-11T07:25:13.653Z,24.60
2022-08-11T07:27:42.591Z,24.67
2022-08-11T07:30:09.845Z,24.75
2022-08-11T07:32:41.841Z,24.86
2022-08-11T07:35:10.238Z,24.94
2022-08-11T07:37:36.817Z,25.01
2022-08-11T07:40:03.951Z,25.10
2022-08-11T07:42:31.718Z,25.17
2022-08-11T07:44:58.483Z,25.23
2022-08-11T07:47:25.138Z,25.29
2022-08-11T07:49:53.110Z,25.33
2022-08-11T07:52:19.754Z,25.36
2022-08-11T07:54:50.068Z,25.42
2022-08-11T07:58:12.743Z,25.47
2022-08-11T08:00:05.839Z,25.52
2022-08-11T08:02:32.586Z,25.51
2022-08-11T08:05:00.525Z,25.51
2022-08-11T08:07:27.154Z,25.52
2022-08-11T08:09:54.951Z,25.52
2022-08-11T08:12:22.256Z,25.53
2022-08-11T08:14:49.430Z,25.58
2022-08-11T08:17:16.053Z,25.61
2022-08-11T08:19:43.671Z,25.60
2022-08-11T08:22:39.088Z,25.61
2022-08-11T08:24:58.632Z,25.61
2022-08-11T08:27:25.483Z,25.64
2022-08-11T08:29:54.967Z,25.69
2022-08-11T08:32:21.821Z,25.73
2022-08-11T08:34:49.548Z,25.78
2022-08-11T08:37:45.685Z,25.80
2022-08-11T08:40:07.141Z,25.85
2022-08-11T08:42:44.997Z,25.88
2022-08-11T08:45:13.500Z,25.93
2022-08-11T08:47:43.272Z,25.96
2022-08-11T08:50:16.501Z,25.98
2022-08-11T08:52:50.132Z,26.00
2022-08-11T08:55:18.203Z,26.03
2022-08-11T08:57:45.240Z,26.08
2022-08-11T09:00:16.868Z,26.15
2022-08-11T09:02:46.215Z,26.20
2022-08-11T09:05:13.076Z,26.26
2022-08-11T09:07:40.906Z,26.30
2022-08-11T09:10:09.659Z,26.34
2022-08-11T09:12:38.866Z,26.39
2022-08-11T09:15:06.906Z,26.42
2022-08-11T09:17:34.642Z,26.44
2022-08-11T09:20:03.259Z,26.47
2022-08-11T09:22:31.713Z,26.52
2022-08-11T09:24:58.389Z,26.58
2022-08-11T09:27:26.422Z,26.58
2022-08-11T09:29:53.102Z,26.61
2022-08-11T09:32:20.070Z,26.64
2022-08-11T09:34:46.815Z,26.68
2022-08-11T09:37:13.458Z,26.71
2022-08-11T09:39:55.788Z,26.76
2022-08-11T09:42:23.460Z,26.80
2022-08-11T09:44:52.021Z,26.88
2022-08-11T09:47:20.486Z,26.97
2022-08-11T09:49:47.140Z,27.02
2022-08-11T09:52:13.758Z,27.09
2022-08-11T09:54:40.864Z,27.14
2022-08-11T09:57:07.628Z,27.17
2022-08-11T09:59:34.332Z,27.21
2022-08-11T10:02:03.559Z,27.26
2022-08-11T10:04:33.525Z,27.33
2022-08-11T10:07:00.352Z,27.42
2022-08-11T10:09:27.008Z,27.47
2022-08-11T10:11:57.938Z,27.51
2022-08-11T10:14:32.935Z,27.57
2022-08-11T10:17:04.166Z,27.63
2022-08-11T10:19:30.981Z,27.70
2022-08-11T10:21:57.628Z,27.75
2022-08-11T10:24:24.231Z,27.80
2022-08-11T10:26:51.111Z,27.86
2022-08-11T10:29:18.034Z,27.96
2022-08-11T10:31:57.077Z,28.04
2022-08-11T10:34:27.370Z,28.07
2022-08-11T10:36:55.768Z,28.13
2022-08-11T10:39:22.857Z,28.12
2022-08-11T10:42:02.082Z,28.14
2022-08-11T10:44:37.290Z,28.17
2022-08-11T10:47:04.383Z,28.21
2022-08-11T10:49:32.375Z,28.27
2022-08-11T10:51:59.120Z,28.32
2022-08-11T10:54:25.819Z,28.39
2022-08-11T10:56:52.474Z,28.46
2022-08-11T10:59:19.201Z,28.50
2022-08-11T11:01:45.967Z,28.55
2022-08-11T11:04:13.581Z,28.61
2022-08-11T11:06:49.293Z,28.74
2022-08-11T11:09:17.735Z,28.79
2022-08-11T11:11:47.146Z,28.86
2022-08-11T11:14:15.513Z,28.94
2022-08-11T11:16:44.088Z,28.95
2022-08-11T11:19:11.292Z,28.97
2022-08-11T11:21:38.459Z,29.01
2022-08-11T11:24:15.640Z,29.08
2022-08-11T11:26:43.453Z,29.07
2022-08-11T11:29:35.997Z,29.15
2022-08-11T11:32:19.803Z,29.21
2022-08-11T11:34:58.118Z,29.28
2022-08-11T11:37:24.722Z,29.40
2022-08-11T11:39:53.215Z,29.52
2022-08-11T11:42:20.003Z,29.51
2022-08-11T11:44:46.654Z,29.49
2022-08-11T11:47:13.333Z,29.55
2022-08-11T11:49:41.167Z,29.67
2022-08-11T11:52:08.267Z,29.82
2022-08-11T11:54:35.001Z,29.92
2022-08-11T11:57:03.360Z,30.00
2022-08-11T11:59:30.097Z,30.05
2022-08-11T12:01:56.730Z,30.07
2022-08-11T12:04:23.390Z,30.10
2022-08-11T12:06:50.019Z,30.15
2022-08-11T12:09:16.623Z,30.14
2022-08-11T12:11:43.593Z,30.19
2022-08-11T12:14:11.943Z,30.25
2022-08-11T12:16:39.754Z,30.36
2022-08-11T12:19:07.898Z,30.40
2022-08-11T12:21:34.984Z,30.39
2022-08-11T12:24:04.485Z,30.38
2022-08-11T12:26:31.273Z,30.41
2022-08-11T12:28:57.940Z,30.40
2022-08-11T12:31:26.023Z,30.42
2022-08-11T12:33:52.698Z,30.46
2022-08-11T12:36:19.402Z,30.56
2022-08-11T12:38:48.583Z,30.59
2022-08-11T12:41:18.637Z,30.61
2022-08-11T12:43:45.890Z,30.66
2022-08-11T12:46:24.482Z,30.77
2022-08-11T12:49:01.237Z,30.93
2022-08-11T12:51:30.928Z,31.11
2022-08-11T12:54:21.440Z,31.31
2022-08-11T12:56:49.132Z,31.46
2022-08-11T12:59:15.747Z,31.51
2022-08-11T13:01:42.973Z,31.45
2022-08-11T13:04:10.984Z,31.48
2022-08-11T13:06:37.688Z,31.54
2022-08-11T13:09:04.460Z,31.58
2022-08-11T13:11:57.017Z,31.61
2022-08-11T13:14:17.768Z,31.64
2022-08-11T13:16:44.636Z,31.77
2022-08-11T13:19:12.663Z,31.91
2022-08-11T13:21:39.340Z,32.05
2022-08-11T13:24:06.417Z,32.07
2022-08-11T13:26:46.905Z,31.97
2022-08-11T13:29:21.001Z,31.81
2022-08-11T13:31:47.737Z,31.70
2022-08-11T13:34:16.764Z,31.71
2022-08-11T13:36:43.538Z,31.76
2022-08-11T13:39:10.234Z,31.68
2022-08-11T13:41:37.102Z,31.72
2022-08-11T13:44:04.292Z,31.76
2022-08-11T13:46:30.964Z,31.83
2022-08-11T13:49:00.419Z,31.84
2022-08-11T13:51:34.216Z,31.89
2022-08-11T13:54:03.223Z,31.90
2022-08-11T13:56:29.873Z,31.91
2022-08-11T13:58:56.703Z,31.99
2022-08-11T14:02:22.404Z,32.13
2022-08-11T14:04:30.614Z,32.30
2022-08-11T14:07:00.436Z,32.46
2022-08-11T14:09:28.379Z,32.55
2022-08-11T14:12:20.520Z,32.47
2022-08-11T14:14:44.274Z,32.28
2022-08-11T14:17:10.935Z,32.23
2022-08-11T14:19:40.469Z,32.23
2022-08-11T14:22:08.783Z,32.28
2022-08-11T14:24:36.840Z,32.29
2022-08-11T14:27:04.100Z,32.27
2022-08-11T14:29:30.798Z,32.19
2022-08-11T14:31:58.640Z,32.22
2022-08-11T14:34:26.170Z,32.24
2022-08-11T14:36:53.816Z,32.26
2022-08-11T14:39:23.092Z,32.23
2022-08-11T14:42:10.961Z,32.23
2022-08-11T14:44:37.873Z,32.38
2022-08-11T14:47:04.937Z,32.43
2022-08-11T14:50:09.469Z,32.38
2022-08-11T14:52:38.175Z,32.38
2022-08-11T14:55:07.228Z,32.37
2022-08-11T14:57:55.044Z,32.38
2022-08-11T15:00:23.354Z,32.40
2022-08-11T15:02:50.080Z,32.23
2022-08-11T15:05:16.756Z,32.21
2022-08-11T15:07:43.378Z,32.25
2022-08-11T15:10:13.520Z,32.23
2022-08-11T15:12:40.722Z,32.30
2022-08-11T15:15:08.285Z,32.41
2022-08-11T15:17:42.753Z,32.48
2022-08-11T15:20:12.346Z,32.50
2022-08-11T15:22:39.263Z,32.50
2022-08-11T15:25:06.613Z,32.44
2022-08-11T15:27:34.724Z,32.22
2022-08-11T15:30:02.080Z,32.12
2022-08-11T15:32:28.774Z,32.14
2022-08-11T15:34:59.434Z,32.10
2022-08-11T15:37:30.090Z,32.01
2022-08-11T15:40:02.768Z,31.94
2022-08-11T15:42:29.481Z,31.98
2022-08-11T15:45:02.557Z,32.00
2022-08-11T15:47:36.047Z,32.00
2022-08-11T15:50:10.673Z,32.06
2022-08-11T15:52:44.455Z,32.13
2022-08-11T15:55:11.171Z,32.15
2022-08-11T15:57:39.513Z,32.12
2022-08-11T16:00:09.836Z,31.98
2022-08-11T16:02:36.455Z,31.85
2022-08-11T16:05:06.060Z,31.77
2022-08-11T16:07:34.241Z,31.72
2022-08-11T16:10:05.771Z,31.72
2022-08-11T16:12:37.397Z,31.65
2022-08-11T16:15:05.517Z,31.56
2022-08-11T16:17:34.657Z,31.49
2022-08-11T16:20:01.421Z,31.38
2022-08-11T16:22:29.324Z,31.31
2022-08-11T16:27:03.157Z,31.25
2022-08-11T16:27:47.306Z,31.15
2022-08-11T16:30:14.061Z,31.09
2022-08-11T16:32:44.377Z,31.05
2022-08-11T16:35:13.322Z,31.01
2022-08-11T16:37:40.223Z,30.98
2022-08-11T16:40:07.946Z,30.91
2022-08-11T16:43:04.585Z,30.84
2022-08-11T16:45:21.524Z,30.78
2022-08-11T16:48:02.083Z,30.77
2022-08-11T16:50:30.359Z,30.71
2022-08-11T16:52:57.038Z,30.68
2022-08-11T16:55:51.339Z,30.62
2022-08-11T16:58:10.554Z,30.57
2022-08-11T17:00:37.256Z,30.52
2022-08-11T17:03:05.340Z,30.49
2022-08-11T17:05:33.062Z,30.50
2022-08-11T17:08:02.207Z,30.50
2022-08-11T17:10:40.061Z,30.50
2022-08-11T17:13:16.919Z,30.47
2022-08-11T17:15:45.748Z,30.46
2022-08-11T17:18:18.959Z,30.44
2022-08-11T17:20:45.841Z,30.35
2022-08-11T17:23:13.014Z,30.28
2022-08-11T17:26:03.027Z,30.25
2022-08-11T17:28:26.773Z,30.21
2022-08-11T17:30:53.451Z,30.20
2022-08-11T17:33:21.469Z,30.18
2022-08-11T17:35:48.203Z,30.16
2022-08-11T17:38:15.807Z,30.10
2022-08-11T17:40:43.819Z,30.04
2022-08-11T17:43:10.452Z,29.98
2022-08-11T17:45:37.397Z,29.90
2022-08-11T17:48:04.642Z,29.83
2022-08-11T17:50:32.622Z,29.77
2022-08-11T17:52:59.337Z,29.67
2022-08-11T17:55:52.362Z,29.56
2022-08-11T17:58:13.339Z,29.49
2022-08-11T18:00:39.975Z,29.43
2022-08-11T18:03:06.584Z,29.39
2022-08-11T18:05:35.902Z,29.29
2022-08-11T18:08:03.886Z,29.18
2022-08-11T18:10:33.100Z,29.06
2022-08-11T18:13:02.265Z,28.92
2022-08-11T18:15:31.825Z,28.80
2022-08-11T18:17:58.726Z,28.67
2022-08-11T18:20:25.478Z,28.57
2022-08-11T18:22:53.476Z,28.45
2022-08-11T18:25:21.535Z,28.32
2022-08-11T18:27:48.530Z,28.20
2022-08-11T18:30:15.252Z,28.07
2022-08-11T18:32:49.527Z,27.97
2022-08-11T18:35:17.042Z,27.84
2022-08-11T18:37:45.430Z,27.72
2022-08-11T18:40:16.296Z,27.58
2022-08-11T18:42:43.648Z,27.46
2022-08-11T18:45:11.969Z,27.34
2022-08-11T18:47:38.687Z,27.21
2022-08-11T18:50:08.295Z,27.08
2022-08-11T18:52:38.714Z,26.94
2022-08-11T18:55:08.111Z,26.83
2022-08-11T18:57:53.863Z,26.69
2022-08-11T19:00:21.733Z,26.58
2022-08-11T19:02:49.922Z,26.46
2022-08-11T19:05:17.801Z,26.35
2022-08-11T19:07:44.899Z,26.26
2022-08-11T19:10:11.510Z,26.17
2022-08-11T19:12:41.307Z,26.06
2022-08-11T19:15:08.430Z,25.96
2022-08-11T19:17:44.080Z,25.88
2022-08-11T19:20:13.884Z,25.79
2022-08-11T19:22:40.836Z,25.71
2022-08-11T19:25:08.099Z,25.63
2022-08-11T19:27:34.673Z,25.57
2022-08-11T19:30:13.419Z,25.51
2022-08-11T19:32:40.894Z,25.43
2022-08-11T19:35:07.857Z,25.36
2022-08-11T19:37:34.459Z,25.29
2022-08-11T19:40:11.353Z,25.20
2022-08-11T19:42:38.141Z,25.12
2022-08-11T19:45:06.483Z,25.04
2022-08-11T19:47:33.224Z,24.96
2022-08-11T19:49:59.911Z,24.89
2022-08-11T19:52:26.665Z,24.82
2022-08-11T19:54:53.388Z,24.74
2022-08-11T19:57:20.155Z,24.68
2022-08-11T19:59:46.769Z,24.60
2022-08-11T20:02:15.015Z,24.56
2022-08-11T20:04:41.876Z,24.50
2022-08-11T20:07:08.624Z,24.42
2022-08-11T20:10:05.361Z,24.36
2022-08-11T20:12:24.193Z,24.29
2022-08-11T20:14:51.203Z,24.22
2022-08-11T20:17:19.283Z,24.18
2022-08-11T20:19:55.094Z,24.12
2022-08-11T20:22:22.372Z,24.05
2022-08-11T20:24:49.148Z,23.98
2022-08-11T20:27:18.582Z,23.90
2022-08-11T20:29:50.903Z,23.83
2022-08-11T20:32:18.921Z,23.77
2022-08-11T20:34:45.584Z,23.70
2022-08-11T20:37:12.148Z,23.62
2022-08-11T20:39:38.944Z,23.55
2022-08-11T20:42:05.785Z,23.48
2022-08-11T20:44:32.399Z,23.40
2022-08-11T20:46:59.003Z,23.34
2022-08-11T20:49:27.571Z,23.26
2022-08-11T20:52:11.105Z,23.20
2022-08-11T20:54:43.726Z,23.15
2022-08-11T20:59:59.204Z,23.06
2022-08-11T21:02:26.678Z,23.02
2022-08-11T21:04:55.381Z,22.97
2022-08-11T21:07:27.945Z,22.91
2022-08-11T21:10:00.800Z,22.86
2022-08-11T21:12:37.018Z,22.83
2022-08-11T21:15:04.807Z,22.78
2022-08-11T21:17:33.046Z,22.74
2022-08-11T21:20:07.986Z,22.73
2022-08-11T21:22:59.547Z,22.67
2022-08-11T21:25:30.725Z,22.61
2022-08-11T21:27:59.117Z,22.58
2022-08-11T21:30:26.144Z,22.53
2022-08-11T21:32:52.894Z,22.49
2022-08-11T21:35:20.916Z,22.46
2022-08-11T21:37:48.538Z,22.41
2022-08-11T21:40:17.456Z,22.39
2022-08-11T21:42:45.008Z,22.36
2022-08-11T21:45:11.582Z,22.33
2022-08-11T21:47:42.978Z,22.28
2022-08-11T21:50:10.682Z,22.25
2022-08-11T21:52:38.840Z,22.22
2022-08-11T21:55:05.951Z,22.18
2022-08-11T21:57:32.492Z,22.14
2022-08-11T21:59:59.631Z,22.12
2022-08-11T22:02:26.403Z,22.08
2022-08-11T22:04:52.930Z,22.04
2022-08-11T22:07:19.577Z,22.00
2022-08-11T22:09:47.770Z,21.96
2022-08-11T22:12:33.403Z,21.93
2022-08-11T22:15:00.888Z,21.89
2022-08-11T22:17:27.753Z,21.85
2022-08-11T22:19:54.390Z,21.82
2022-08-11T22:22:21.219Z,21.79
2022-08-11T22:24:54.288Z,21.75
2022-08-11T22:27:20.883Z,21.71
2022-08-11T22:29:50.605Z,21.67
2022-08-11T22:32:17.976Z,21.65
2022-08-11T22:34:52.857Z,21.62
2022-08-11T22:37:27.085Z,21.58
2022-08-11T22:39:59.557Z,21.54
2022-08-11T22:42:32.246Z,21.50
2022-08-11T22:45:00.701Z,21.48
2022-08-11T22:47:27.498Z,21.46
2022-08-11T22:50:10.297Z,21.43
2022-08-11T22:52:36.879Z,21.39
2022-08-11T22:55:05.933Z,21.35
2022-08-11T22:57:35.671Z,21.31
2022-08-11T23:00:02.288Z,21.26
2022-08-11T23:02:28.857Z,21.24
2022-08-11T23:04:55.491Z,21.22
2022-08-11T23:07:50.248Z,21.18
2022-08-11T23:10:10.382Z,21.16
2022-08-11T23:12:37.967Z,21.14
2022-08-11T23:15:05.467Z,21.10
2022-08-11T23:17:32.059Z,21.08
2022-08-11T23:20:08.649Z,21.05
2022-08-11T23:22:49.863Z,21.02
2022-08-11T23:25:18.735Z,20.96
2022-08-11T23:27:45.440Z,20.92
2022-08-11T23:30:12.278Z,20.89
2022-08-11T23:32:39.036Z,20.85
2022-08-11T23:35:38.564Z,20.82
2022-08-11T23:37:52.800Z,20.77
2022-08-11T23:40:20.751Z,20.73
2022-08-11T23:42:49.781Z,20.67
2022-08-11T23:45:22.286Z,20.62
2022-08-11T23:47:50.547Z,20.60
2022-08-11T23:50:17.543Z,20.59
2022-08-11T23:52:44.177Z,20.58
2022-08-11T23:55:10.801Z,20.58
2022-08-11T23:57:47.701Z,20.54
